Airfield :
LOGIN :

Register | Disclaimer

   EN    FR    IT 

 










Legend :    VFR   Marginal VFR   IFR   Intensive IFR   Very Intensive IFR
Visi :
Ceiling :
>= 8 km
>= 3000ft
5 to 8 km
1000 to 3000 ft
1500m to 5 km
500 to 1000 ft
800 to 1500m
200 to 500 ft
< 800m
< 200 ft
Symbols :   Thunderstorms  Fog  Heavy snow  Heavy precipitations  Wind > 20 kt
SIGMETs :     Misc.  Thunderstorms  Icing  Turbulence  Mountain Waves  Volcanic Ashes







- Airport Elevation : 56 ft
- IATA code : ILY
- Download approach charts


EGPI - Islay

CURRENT METAR :
  • 111250Z 13020G30KT 090V160 9999 BKN009 11/09 Q1016

EXPIRED METARs :
  • 111220Z 13025KT 9999 SCT007 BKN013 11/10 Q1017
  • 111150Z 11022G33KT 070V150 9999 SCT007 BKN012 10/09 Q1017
  • 111120Z 12024KT 090V150 9999 VCSH SCT007 BKN016 10/09 Q1017
  • 111050Z 13024KT 100V160 9999 BKN008 BKN016 10/09 Q1017

TAF TAF EGPI
Valid from the 11 at 12:00 until the 11 at 19:00 UTC


111102Z 1112/1119 13018KT 9999 FEW006 BKN012
TEMPO 1112/1119 15022G32KT 6000 -DZ BKN006
No reported NOTAMs for that airfield.



MET'MAP, your aeronautical weather chart ! - Copyright ORBIFLY December 2007 - Disclaimer

ORBIFLY MET'MAP TEAM :

Programming & Development : Alexandra Zaïnal
Concept & Development : Baudouin d'Aumeries
Co-Development & Prog : Marc-Olivier Méhu
Technical & hardware support : Manuel Goepfert

Contact : metmap@orbifly.com




SOURCES & CREDITS :

   NOAA